createdAt,value
2022-09-13T00:01:26.240Z,24.10
2022-09-13T00:03:55.056Z,24.00
2022-09-13T00:06:25.564Z,24.00
2022-09-13T00:08:54.981Z,24.10
2022-09-13T00:11:26.382Z,24.20
2022-09-13T00:13:58.765Z,24.30
2022-09-13T00:16:30.075Z,24.20
2022-09-13T00:19:00.719Z,24.10
2022-09-13T00:21:30.980Z,24.10
2022-09-13T00:24:00.392Z,24.10
2022-09-13T00:26:30.239Z,24.00
2022-09-13T00:29:00.469Z,24.00
2022-09-13T00:31:30.389Z,23.90
2022-09-13T00:34:01.179Z,24.00
2022-09-13T00:36:31.498Z,24.10
2022-09-13T00:39:01.463Z,24.00
2022-09-13T00:41:30.552Z,23.90
2022-09-13T00:44:01.871Z,24.00
2022-09-13T00:46:38.864Z,24.10
2022-09-13T00:49:17.951Z,24.10
2022-09-13T00:56:26.297Z,23.90
2022-09-13T00:59:02.363Z,23.90
2022-09-13T01:01:48.228Z,23.90
2022-09-13T01:04:20.504Z,23.90
2022-09-13T01:06:53.302Z,23.90
2022-09-13T01:09:22.114Z,23.90
2022-09-13T01:12:04.479Z,23.90
2022-09-13T01:14:34.471Z,23.90
2022-09-13T01:17:03.406Z,23.90
2022-09-13T01:19:32.210Z,23.90
2022-09-13T01:22:56.255Z,23.80
2022-09-13T01:26:30.895Z,23.80
2022-09-13T01:29:39.296Z,23.70
2022-09-13T01:32:24.730Z,23.60
2022-09-13T01:35:11.168Z,23.70
2022-09-13T01:37:55.626Z,23.70
2022-09-13T01:40:45.650Z,23.70
2022-09-13T01:43:43.864Z,23.70
2022-09-13T01:46:20.021Z,23.60
2022-09-13T01:49:03.844Z,23.60
2022-09-13T01:51:40.523Z,23.70
2022-09-13T01:54:22.466Z,23.70
2022-09-13T01:57:01.434Z,23.60
2022-09-13T01:59:43.463Z,23.60
2022-09-13T02:02:20.376Z,23.70
2022-09-13T02:04:57.544Z,23.60
2022-09-13T02:07:34.131Z,23.50
2022-09-13T02:10:15.846Z,23.50
2022-09-13T02:12:49.322Z,23.40
2022-09-13T02:15:24.020Z,23.40
2022-09-13T02:18:06.951Z,23.30
2022-09-13T02:20:43.215Z,23.20
2022-09-13T02:23:19.674Z,23.20
2022-09-13T02:25:51.706Z,23.10
2022-09-13T02:28:29.735Z,23.10
2022-09-13T02:31:01.933Z,23.00
2022-09-13T02:33:36.969Z,23.00
2022-09-13T02:36:14.235Z,22.90
2022-09-13T02:38:49.966Z,22.80
2022-09-13T02:41:27.617Z,22.80
2022-09-13T02:44:07.365Z,22.80
2022-09-13T02:47:22.790Z,22.80
2022-09-13T02:50:03.700Z,22.80
2022-09-13T02:52:49.996Z,22.80
2022-09-13T02:55:26.807Z,22.80
2022-09-13T02:58:05.701Z,22.80
2022-09-13T03:00:34.683Z,22.90
2022-09-13T03:03:09.959Z,22.80
2022-09-13T03:05:38.641Z,22.80
2022-09-13T03:08:13.361Z,22.80
2022-09-13T03:10:55.603Z,22.80
2022-09-13T03:13:52.337Z,22.80
2022-09-13T03:16:42.297Z,22.80
2022-09-13T03:19:36.791Z,22.70
2022-09-13T03:22:32.348Z,22.70
2022-09-13T03:25:13.612Z,22.60
2022-09-13T03:27:53.860Z,22.60
2022-09-13T03:30:22.738Z,22.50
2022-09-13T03:32:59.610Z,22.50
2022-09-13T03:35:39.385Z,22.50
2022-09-13T03:38:14.353Z,22.40
2022-09-13T03:40:50.026Z,22.40
2022-09-13T03:43:26.680Z,22.30
2022-09-13T03:46:01.120Z,22.30
2022-09-13T03:48:32.671Z,22.30
2022-09-13T03:51:01.596Z,22.20
2022-09-13T03:53:37.073Z,22.20
2022-09-13T03:56:15.801Z,22.20
2022-09-13T03:58:45.013Z,22.10
2022-09-13T04:01:13.960Z,22.10
2022-09-13T04:03:42.571Z,22.10
2022-09-13T04:06:11.795Z,22.10
2022-09-13T04:13:13.390Z,22.00
2022-09-13T04:15:42.292Z,22.00
2022-09-13T04:18:11.464Z,22.00
2022-09-13T04:20:40.122Z,22.00
2022-09-13T04:23:09.428Z,22.10
2022-09-13T04:25:40.901Z,22.20
2022-09-13T04:28:09.676Z,22.20
2022-09-13T04:30:42.590Z,22.20
2022-09-13T04:33:11.692Z,22.20
2022-09-13T04:35:42.151Z,22.20
2022-09-13T04:38:11.142Z,22.20
2022-09-13T04:45:13.013Z,22.30
2022-09-13T04:47:43.281Z,22.40
2022-09-13T04:50:11.886Z,22.40
2022-09-13T04:52:40.534Z,22.40
2022-09-13T04:55:10.250Z,22.50
2022-09-13T04:57:38.886Z,22.50
2022-09-13T05:00:10.382Z,22.50
2022-09-13T05:02:39.468Z,22.50
2022-09-13T05:05:10.435Z,22.60
2022-09-13T05:07:39.375Z,22.60
2022-09-13T05:10:09.680Z,22.60
2022-09-13T05:12:38.264Z,22.60
2022-09-13T05:15:08.978Z,22.60
2022-09-13T05:17:37.839Z,22.60
2022-09-13T05:20:07.811Z,22.70
2022-09-13T05:22:37.786Z,22.70
2022-09-13T05:25:08.523Z,22.80
2022-09-13T05:27:37.213Z,22.90
2022-09-13T05:30:07.536Z,23.10
2022-09-13T05:32:36.354Z,23.10
2022-09-13T05:35:05.596Z,23.10
2022-09-13T05:37:34.189Z,23.20
2022-09-13T05:40:12.739Z,23.20
2022-09-13T05:42:41.715Z,23.30
2022-09-13T05:45:11.102Z,23.40
2022-09-13T05:47:39.865Z,23.50
2022-09-13T05:50:15.824Z,23.60
2022-09-13T05:52:54.263Z,23.70
2022-09-13T05:55:24.996Z,23.80
2022-09-13T05:57:53.801Z,23.90
2022-09-13T06:00:23.062Z,24.00
2022-09-13T06:02:51.727Z,24.10
2022-09-13T06:05:20.580Z,24.20
2022-09-13T06:07:49.362Z,24.30
2022-09-13T06:10:18.204Z,24.50
2022-09-13T06:12:48.521Z,24.60
2022-09-13T06:15:17.330Z,24.60
2022-09-13T06:17:47.095Z,24.60
2022-09-13T06:20:16.066Z,24.60
2022-09-13T06:22:44.703Z,24.70
2022-09-13T06:25:14.181Z,24.90
2022-09-13T06:27:43.249Z,25.10
2022-09-13T06:30:15.690Z,25.30
2022-09-13T06:32:44.645Z,25.10
2022-09-13T06:35:13.287Z,25.00
2022-09-13T06:37:41.865Z,25.00
2022-09-13T06:40:12.226Z,25.10
2022-09-13T06:42:41.101Z,25.40
2022-09-13T06:45:10.834Z,25.40
2022-09-13T06:47:41.330Z,25.60
2022-09-13T06:50:11.048Z,25.50
2022-09-13T06:52:39.727Z,25.60
2022-09-13T06:55:12.651Z,25.70
2022-09-13T06:57:41.530Z,25.80
2022-09-13T07:00:12.782Z,26.00
2022-09-13T07:02:42.922Z,26.20
2022-09-13T07:05:12.096Z,26.70
2022-09-13T07:07:40.669Z,26.90
2022-09-13T07:10:10.930Z,27.60
2022-09-13T07:12:42.494Z,28.40
2022-09-13T07:15:12.176Z,29.10
2022-09-13T07:17:42.451Z,29.70
2022-09-13T07:20:11.460Z,30.10
2022-09-13T07:22:40.148Z,30.20
2022-09-13T07:25:10.405Z,30.30
2022-09-13T07:27:39.119Z,30.50
2022-09-13T07:30:09.611Z,30.80
2022-09-13T07:32:38.425Z,31.10
2022-09-13T07:35:09.012Z,31.50
2022-09-13T07:37:37.660Z,31.40
2022-09-13T07:40:08.163Z,31.50
2022-09-13T07:42:36.762Z,31.90
2022-09-13T07:45:06.324Z,32.50
2022-09-13T07:47:35.210Z,32.90
2022-09-13T07:50:03.874Z,32.70
2022-09-13T07:52:37.742Z,33.20
2022-09-13T07:55:07.236Z,33.60
2022-09-13T07:57:35.820Z,34.10
2022-09-13T08:00:06.547Z,34.60
2022-09-13T08:02:40.828Z,34.60
2022-09-13T08:05:09.836Z,34.80
2022-09-13T08:07:40.019Z,35.00
2022-09-13T08:10:09.836Z,35.10
2022-09-13T08:12:38.428Z,35.20
2022-09-13T08:15:08.372Z,35.20
2022-09-13T08:17:37.574Z,34.80
2022-09-13T08:20:10.370Z,35.00
2022-09-13T08:22:40.859Z,35.00
2022-09-13T08:25:10.229Z,33.40
2022-09-13T08:27:38.938Z,32.30
2022-09-13T08:30:09.272Z,32.10
2022-09-13T08:32:37.850Z,31.50
2022-09-13T08:35:07.092Z,30.70
2022-09-13T08:37:36.105Z,30.60
2022-09-13T08:40:07.741Z,31.30
2022-09-13T08:47:36.432Z,33.20
2022-09-13T08:50:18.814Z,34.30
2022-09-13T08:53:03.874Z,33.30
2022-09-13T08:55:50.358Z,32.60
2022-09-13T08:58:58.367Z,32.80
2022-09-13T09:01:50.886Z,33.20
2022-09-13T09:04:39.113Z,33.00
2022-09-13T09:07:14.677Z,33.30
2022-09-13T09:09:50.197Z,33.90
2022-09-13T09:12:31.439Z,33.60
2022-09-13T09:15:09.791Z,32.90
2022-09-13T09:17:51.531Z,33.00
2022-09-13T09:20:34.981Z,32.70
2022-09-13T09:23:16.772Z,32.10
2022-09-13T09:25:53.022Z,32.50
2022-09-13T09:28:23.255Z,33.20
2022-09-13T09:31:05.947Z,33.40
2022-09-13T09:33:53.278Z,34.10
2022-09-13T09:36:37.351Z,34.80
2022-09-13T09:39:08.153Z,34.90
2022-09-13T09:41:38.501Z,35.10
2022-09-13T09:44:20.305Z,35.00
2022-09-13T09:46:57.790Z,35.00
2022-09-13T09:49:52.082Z,35.00
2022-09-13T09:52:29.571Z,35.40
2022-09-13T09:55:13.331Z,34.30
2022-09-13T09:57:54.484Z,34.00
2022-09-13T10:00:29.004Z,34.50
2022-09-13T10:03:03.451Z,34.50
2022-09-13T10:05:33.421Z,34.80
2022-09-13T10:08:05.735Z,34.90
2022-09-13T10:10:42.715Z,34.80
2022-09-13T10:13:19.947Z,34.90
2022-09-13T10:15:59.090Z,33.70
2022-09-13T10:18:45.500Z,33.60
2022-09-13T10:21:26.398Z,33.20
2022-09-13T10:24:22.410Z,33.10
2022-09-13T10:26:51.462Z,32.70
2022-09-13T10:29:20.230Z,32.70
2022-09-13T10:36:50.607Z,32.70
2022-09-13T10:39:21.311Z,32.70
2022-09-13T10:41:55.883Z,32.40
2022-09-13T10:44:32.410Z,32.20
2022-09-13T10:47:06.568Z,32.40
2022-09-13T10:49:43.903Z,32.50
2022-09-13T10:52:33.871Z,32.50
2022-09-13T10:55:32.524Z,31.80
2022-09-13T10:58:21.149Z,31.70
2022-09-13T11:01:40.937Z,31.30
2022-09-13T11:04:53.549Z,31.20
2022-09-13T11:07:41.486Z,31.10
2022-09-13T11:10:22.153Z,31.60
2022-09-13T11:13:03.794Z,31.90
2022-09-13T11:15:59.183Z,32.10
2022-09-13T11:18:59.101Z,32.30
2022-09-13T11:21:48.114Z,32.20
2022-09-13T11:24:47.303Z,32.30
2022-09-13T11:27:29.668Z,32.10
2022-09-13T11:30:11.695Z,32.10
2022-09-13T11:33:25.117Z,32.20
2022-09-13T11:36:18.966Z,32.30
2022-09-13T11:39:04.307Z,32.00
2022-09-13T11:41:50.253Z,32.20
2022-09-13T11:45:09.073Z,31.60
2022-09-13T11:47:59.128Z,31.70
2022-09-13T11:50:39.883Z,31.90
2022-09-13T11:53:40.572Z,31.90
2022-09-13T11:56:17.674Z,31.90
2022-09-13T11:58:52.901Z,32.00
2022-09-13T12:01:29.097Z,31.90
2022-09-13T12:04:05.442Z,31.70
2022-09-13T12:06:41.727Z,31.50
2022-09-13T12:09:20.547Z,31.40
2022-09-13T12:11:56.523Z,31.50
2022-09-13T12:14:45.436Z,31.60
2022-09-13T12:17:30.469Z,31.80
2022-09-13T12:20:04.389Z,31.80
2022-09-13T12:22:36.942Z,32.00
2022-09-13T12:25:20.930Z,32.00
2022-09-13T12:28:05.630Z,32.00
2022-09-13T12:30:48.995Z,32.00
2022-09-13T12:33:18.270Z,32.00
2022-09-13T12:36:06.500Z,31.90
2022-09-13T12:39:14.047Z,31.90
2022-09-13T12:42:06.279Z,31.90
2022-09-13T12:44:57.869Z,31.90
2022-09-13T12:47:57.348Z,31.90
2022-09-13T12:50:52.423Z,32.00
2022-09-13T12:54:02.591Z,31.90
2022-09-13T12:56:45.172Z,31.80
2022-09-13T12:59:35.820Z,31.70
2022-09-13T13:02:26.991Z,31.60
2022-09-13T13:05:01.884Z,31.50
2022-09-13T13:07:36.141Z,31.50
2022-09-13T13:10:06.972Z,31.40
2022-09-13T13:12:39.888Z,31.40
2022-09-13T13:16:01.927Z,31.40
2022-09-13T13:18:44.462Z,31.40
2022-09-13T13:21:39.152Z,31.40
2022-09-13T13:24:45.112Z,31.40
2022-09-13T13:27:48.061Z,31.50
2022-09-13T13:30:54.178Z,31.40
2022-09-13T13:33:28.513Z,31.50
2022-09-13T13:35:57.477Z,31.30
2022-09-13T13:38:47.784Z,31.30
2022-09-13T13:41:45.078Z,31.20
2022-09-13T13:45:09.513Z,31.20
2022-09-13T13:48:11.943Z,31.20
2022-09-13T13:51:17.549Z,31.30
2022-09-13T13:53:56.286Z,31.20
2022-09-13T13:56:49.373Z,31.10
2022-09-13T13:59:28.217Z,31.10
2022-09-13T14:02:01.956Z,31.20
2022-09-13T14:05:14.619Z,31.20
2022-09-13T14:08:16.892Z,31.30
2022-09-13T14:11:00.127Z,31.30
2022-09-13T14:14:00.299Z,31.20
2022-09-13T14:16:51.135Z,31.30
2022-09-13T14:19:27.715Z,31.40
2022-09-13T14:22:16.948Z,31.50
2022-09-13T14:24:48.904Z,31.50
2022-09-13T14:27:24.243Z,31.60
2022-09-13T14:29:57.371Z,31.60
2022-09-13T14:32:35.046Z,31.60
2022-09-13T14:35:23.081Z,31.70
2022-09-13T14:37:51.979Z,31.70
2022-09-13T14:40:26.695Z,31.80
2022-09-13T14:42:57.483Z,31.80
2022-09-13T14:45:33.345Z,31.80
2022-09-13T14:48:09.023Z,31.80
2022-09-13T14:50:43.636Z,31.70
2022-09-13T14:53:19.476Z,31.70
2022-09-13T14:55:55.358Z,31.80
2022-09-13T14:58:30.477Z,31.70
2022-09-13T15:05:37.265Z,31.80
2022-09-13T15:08:28.739Z,31.80
2022-09-13T15:12:38.669Z,31.80
2022-09-13T15:15:33.813Z,31.70
2022-09-13T15:18:07.650Z,31.60
2022-09-13T15:20:52.881Z,31.60
2022-09-13T15:23:28.136Z,31.50
2022-09-13T15:26:01.042Z,31.50
2022-09-13T15:28:33.881Z,31.40
2022-09-13T15:31:04.411Z,31.40
2022-09-13T15:33:35.954Z,31.30
2022-09-13T15:36:31.827Z,31.30
2022-09-13T15:39:04.739Z,31.30
2022-09-13T15:41:35.814Z,31.20
2022-09-13T15:44:07.338Z,31.20
2022-09-13T15:46:48.141Z,31.20
2022-09-13T15:49:20.634Z,31.20
2022-09-13T15:51:55.225Z,31.20
2022-09-13T15:54:27.104Z,31.20
2022-09-13T15:57:00.662Z,31.20
2022-09-13T15:59:29.577Z,31.10
2022-09-13T16:02:01.331Z,31.10
2022-09-13T16:04:30.087Z,31.00
2022-09-13T16:06:58.959Z,30.90
2022-09-13T16:09:28.128Z,30.90
2022-09-13T16:11:57.129Z,30.80
2022-09-13T16:14:26.245Z,30.80
2022-09-13T16:16:56.398Z,30.80
2022-09-13T16:19:26.483Z,30.80
2022-09-13T16:21:55.403Z,30.90
2022-09-13T16:24:24.081Z,30.80
2022-09-13T16:26:52.832Z,30.80
2022-09-13T16:29:21.757Z,30.80
2022-09-13T16:31:50.845Z,30.80
2022-09-13T16:34:19.569Z,30.80
2022-09-13T16:36:49.772Z,30.80
2022-09-13T16:39:19.421Z,30.70
2022-09-13T16:41:48.714Z,30.60
2022-09-13T16:44:18.195Z,30.50
2022-09-13T16:46:46.960Z,30.50
2022-09-13T16:49:15.794Z,30.40
2022-09-13T16:51:44.587Z,30.30
2022-09-13T16:54:16.084Z,30.20
2022-09-13T16:56:44.761Z,30.20
2022-09-13T16:59:13.597Z,30.20
2022-09-13T17:01:42.394Z,30.10
2022-09-13T17:04:11.836Z,30.20
2022-09-13T17:06:41.366Z,30.20
2022-09-13T17:09:10.505Z,30.20
2022-09-13T17:11:44.579Z,30.20
2022-09-13T17:14:18.271Z,30.10
2022-09-13T17:16:50.836Z,30.10
2022-09-13T17:19:22.705Z,30.00
2022-09-13T17:21:52.474Z,30.00
2022-09-13T17:24:21.976Z,29.90
2022-09-13T17:26:52.157Z,29.90
2022-09-13T17:29:21.188Z,29.80
2022-09-13T17:31:50.433Z,29.80
2022-09-13T17:34:21.944Z,29.80
2022-09-13T17:41:26.519Z,29.90
2022-09-13T17:43:57.289Z,29.90
2022-09-13T17:46:30.130Z,29.90
2022-09-13T17:49:01.599Z,29.90
2022-09-13T17:51:33.948Z,29.90
2022-09-13T17:54:06.520Z,29.80
2022-09-13T17:56:37.961Z,29.80
2022-09-13T17:59:10.902Z,29.80
2022-09-13T18:01:43.495Z,29.80
2022-09-13T18:04:14.220Z,29.80
2022-09-13T18:06:44.930Z,29.70
2022-09-13T18:09:16.559Z,29.70
2022-09-13T18:16:22.271Z,29.60
2022-09-13T18:18:53.495Z,29.60
2022-09-13T18:21:27.759Z,29.60
2022-09-13T18:23:59.807Z,29.60
2022-09-13T18:26:31.486Z,29.50
2022-09-13T18:29:03.443Z,29.50
2022-09-13T18:31:37.379Z,29.50
2022-09-13T18:34:11.336Z,29.50
2022-09-13T18:36:42.064Z,29.40
2022-09-13T18:39:19.098Z,29.40
2022-09-13T18:41:50.322Z,29.40
2022-09-13T18:44:19.742Z,29.40
2022-09-13T18:46:51.503Z,29.40
2022-09-13T18:49:20.901Z,29.30
2022-09-13T18:51:50.330Z,29.30
2022-09-13T18:54:21.130Z,29.30
2022-09-13T18:56:50.995Z,29.30
2022-09-13T18:59:21.074Z,29.30
2022-09-13T19:01:53.764Z,29.20
2022-09-13T19:04:23.229Z,29.20
2022-09-13T19:06:57.533Z,29.10
2022-09-13T19:09:26.975Z,29.10
2022-09-13T19:11:57.352Z,29.10
2022-09-13T19:19:01.570Z,29.10
2022-09-13T19:21:33.673Z,29.10
2022-09-13T19:24:09.354Z,29.10
2022-09-13T19:26:44.202Z,29.10
2022-09-13T19:29:18.256Z,29.10
2022-09-13T19:31:50.181Z,29.10
2022-09-13T19:34:24.720Z,29.10
2022-09-13T19:36:58.426Z,29.10
2022-09-13T19:39:30.526Z,29.10
2022-09-13T19:42:01.238Z,29.10
2022-09-13T19:44:31.803Z,29.20
2022-09-13T19:47:45.011Z,29.20
2022-09-13T19:49:53.915Z,29.30
2022-09-13T19:52:24.335Z,29.30
2022-09-13T19:54:56.458Z,29.40
2022-09-13T19:57:25.594Z,29.30
2022-09-13T19:59:56.263Z,29.20
2022-09-13T20:02:26.735Z,29.20
2022-09-13T20:04:58.709Z,29.20
2022-09-13T20:07:28.597Z,29.30
2022-09-13T20:10:01.692Z,29.30
2022-09-13T20:12:31.744Z,29.40
2022-09-13T20:15:01.106Z,29.40
2022-09-13T20:17:32.362Z,29.40
2022-09-13T20:20:04.726Z,29.50
2022-09-13T20:22:35.294Z,29.40
2022-09-13T20:25:06.548Z,29.50
2022-09-13T20:32:09.529Z,29.40
2022-09-13T20:34:40.061Z,29.40
2022-09-13T20:37:11.698Z,29.50
2022-09-13T20:39:42.179Z,29.50
2022-09-13T20:42:13.839Z,29.50
2022-09-13T20:44:43.802Z,29.40
2022-09-13T20:47:13.548Z,29.40
2022-09-13T20:49:43.562Z,29.50
2022-09-13T20:52:14.803Z,29.50
2022-09-13T20:54:43.654Z,29.50
2022-09-13T20:57:12.377Z,29.60
2022-09-13T20:59:41.130Z,29.50
2022-09-13T21:02:11.112Z,29.60
2022-09-13T21:04:39.803Z,29.60
2022-09-13T21:07:26.025Z,29.50
2022-09-13T21:09:58.070Z,29.60
2022-09-13T21:12:26.847Z,29.50
2022-09-13T21:14:55.899Z,29.60
2022-09-13T21:17:24.644Z,29.50
2022-09-13T21:19:53.311Z,29.40
2022-09-13T21:22:22.171Z,29.40
2022-09-13T21:24:50.785Z,29.40
2022-09-13T21:27:21.240Z,29.40
2022-09-13T21:29:50.341Z,29.20
2022-09-13T21:32:18.945Z,29.30
2022-09-13T21:34:47.518Z,29.20
2022-09-13T21:37:16.416Z,29.10
2022-09-13T21:39:45.180Z,29.10
2022-09-13T21:42:15.950Z,29.00
2022-09-13T21:44:46.348Z,29.00
2022-09-13T21:47:15.000Z,29.00
2022-09-13T21:49:45.305Z,28.90
2022-09-13T21:52:14.294Z,28.80
2022-09-13T21:54:42.941Z,28.70
2022-09-13T21:57:11.689Z,28.70
2022-09-13T21:59:40.676Z,28.60
2022-09-13T22:02:11.773Z,28.50
2022-09-13T22:04:40.744Z,28.40
2022-09-13T22:07:10.105Z,28.30
2022-09-13T22:09:38.736Z,28.30
2022-09-13T22:12:07.754Z,28.30
2022-09-13T22:14:36.533Z,28.30
2022-09-13T22:17:05.322Z,28.30
2022-09-13T22:19:35.320Z,28.30
2022-09-13T22:22:04.150Z,28.30
2022-09-13T22:24:35.772Z,28.40
2022-09-13T22:27:06.508Z,28.40
2022-09-13T22:29:35.486Z,28.50
2022-09-13T22:32:05.074Z,28.50
2022-09-13T22:34:35.392Z,28.60
2022-09-13T22:37:04.257Z,28.40
2022-09-13T22:39:32.897Z,28.40
2022-09-13T22:42:01.783Z,28.40
2022-09-13T22:44:30.371Z,28.40
2022-09-13T22:47:00.437Z,28.30
2022-09-13T22:49:29.429Z,28.40
2022-09-13T22:51:59.331Z,28.50
2022-09-13T22:54:28.594Z,28.30
2022-09-13T22:56:57.839Z,28.30
2022-09-13T22:59:26.567Z,28.20
2022-09-13T23:01:55.235Z,28.20
2022-09-13T23:04:24.144Z,28.20
2022-09-13T23:06:52.705Z,28.10
2022-09-13T23:09:22.930Z,28.00
2022-09-13T23:11:51.740Z,28.00
2022-09-13T23:14:20.940Z,27.90
2022-09-13T23:16:52.234Z,27.80
2022-09-13T23:19:25.705Z,27.90
2022-09-13T23:21:55.179Z,27.80
2022-09-13T23:24:25.330Z,27.80
2022-09-13T23:26:57.004Z,27.80
2022-09-13T23:29:25.926Z,27.70
2022-09-13T23:31:55.039Z,27.50
2022-09-13T23:34:24.092Z,27.30
2022-09-13T23:36:53.897Z,26.80
2022-09-13T23:39:23.972Z,26.80
2022-09-13T23:41:53.211Z,26.80
2022-09-13T23:44:22.126Z,26.60
2022-09-13T23:46:51.253Z,25.90
2022-09-13T23:49:19.861Z,25.50
2022-09-13T23:51:48.942Z,25.40
2022-09-13T23:54:18.352Z,24.70
2022-09-13T23:56:48.371Z,24.80
2022-09-13T23:59:17.536Z,25.20
